Time;durP1;ratioP1;P1;durP2;ratioP2;P2;SDS_P1;SDS_P2;PMS_P1;PMS_P2;Temp;Humidity;BMP_temperature;BMP_pressure;BME280_temperature;BME280_humidity;BME280_pressure;Samples;Min_cycle;Max_cycle;Signal;HPM_P1;HPM_P2
2021/03/04 00:02:12;;;;;;;119.78;36.53;;;;;;;6.70;74.31;101746.25;4438850;27;20069;-77
2021/03/04 00:04:38;;;;;;;132.00;36.65;;;;;;;6.68;74.56;101748.59;4421204;32;20467;-77
2021/03/04 00:07:03;;;;;;;131.57;40.10;;;;;;;6.58;73.90;101750.16;4429929;32;20533;-77
2021/03/04 00:09:29;;;;;;;117.72;35.47;;;;;;;6.71;74.51;101742.25;4425516;32;20457;-77
2021/03/04 00:11:55;;;;;;;128.65;39.05;;;;;;;6.80;74.00;101739.91;4419476;32;20068;-77
2021/03/04 00:14:20;;;;;;;115.90;35.42;;;;;;;6.84;73.63;101735.94;4426951;32;20063;-77
2021/03/04 00:16:46;;;;;;;136.30;38.10;;;;;;;6.88;73.79;101745.19;4417018;32;20426;-77
2021/03/04 00:19:12;;;;;;;128.50;36.67;;;;;;;6.92;73.67;101743.22;4429005;32;20045;-77
2021/03/04 00:21:38;;;;;;;138.32;37.63;;;;;;;6.92;74.03;101740.41;4430881;32;20430;-77
2021/03/04 00:24:04;;;;;;;133.40;39.90;;;;;;;6.91;73.39;101741.63;4421431;32;20043;-77
2021/03/04 00:26:30;;;;;;;127.95;37.65;;;;;;;6.96;73.92;101741.22;4415344;32;20374;-77
2021/03/04 00:28:55;;;;;;;138.77;39.25;;;;;;;6.97;73.60;101733.66;4414617;32;20062;-77
2021/03/04 00:31:21;;;;;;;135.25;39.28;;;;;;;7.03;73.49;101734.87;4419246;32;20413;-77
2021/03/04 00:33:47;;;;;;;134.35;39.13;;;;;;;7.06;73.48;101740.50;4415781;32;20022;-77
2021/03/04 00:36:12;;;;;;;127.93;39.50;;;;;;;7.02;73.22;101739.66;4426627;32;20456;-77
2021/03/04 00:38:38;;;;;;;134.48;39.78;;;;;;;6.94;72.99;101740.84;4429564;32;20332;-77
2021/03/04 00:41:03;;;;;;;131.48;38.25;;;;;;;6.94;73.68;101748.41;4426117;32;20448;-77
2021/03/04 00:43:29;;;;;;;136.27;39.47;;;;;;;6.86;73.95;101749.56;4423620;32;20362;-77
2021/03/04 00:45:55;;;;;;;129.32;39.95;;;;;;;6.89;74.19;101751.56;4420930;32;20037;-77
2021/03/04 00:48:20;;;;;;;149.45;42.05;;;;;;;6.90;74.35;101750.41;4414520;32;20431;-77
2021/03/04 00:50:46;;;;;;;143.15;39.78;;;;;;;6.66;74.18;101742.63;4406170;32;20442;-76
2021/03/04 00:53:11;;;;;;;151.32;40.40;;;;;;;6.66;74.66;101743.41;4418257;32;20430;-77
2021/03/04 00:55:37;;;;;;;145.35;42.13;;;;;;;6.72;74.95;101739.06;4421259;32;20493;-77
2021/03/04 00:58:03;;;;;;;143.57;41.30;;;;;;;6.67;75.49;101745.03;4417827;32;20120;-77
2021/03/04 01:00:29;;;;;;;134.63;40.40;;;;;;;6.77;75.26;101740.69;4405648;32;20117;-77
2021/03/04 01:02:56;;;;;;;134.23;38.75;;;;;;;6.75;75.59;101741.06;4405070;32;20030;-77
2021/03/04 01:05:23;;;;;;;143.90;39.25;;;;;;;6.80;75.95;101748.31;4412482;32;20077;-77
2021/03/04 01:07:48;;;;;;;137.32;41.30;;;;;;;6.79;75.92;101741.94;4419810;32;20037;-77
2021/03/04 01:10:17;;;;;;;143.60;39.78;;;;;;;6.82;76.28;101741.16;4420234;32;20109;-77
2021/03/04 01:12:43;;;;;;;146.48;42.42;;;;;;;6.90;76.35;101725.22;4420006;32;20109;-76
2021/03/04 01:15:13;;;;;;;153.87;41.83;;;;;;;6.88;76.22;101734.00;4408308;32;20033;-77
2021/03/04 01:17:39;;;;;;;151.30;39.22;;;;;;;6.83;76.16;101725.16;4405596;32;20442;-76
2021/03/04 01:20:08;;;;;;;141.40;36.67;;;;;;;6.76;76.58;101733.50;4419287;32;20052;-77
2021/03/04 01:22:33;;;;;;;147.32;38.08;;;;;;;6.82;76.75;101729.16;4413942;32;20084;-76
2021/03/04 01:24:59;;;;;;;152.87;40.12;;;;;;;6.86;76.48;101729.97;4403828;32;20101;-77
2021/03/04 01:27:25;;;;;;;140.65;38.20;;;;;;;6.83;76.87;101728.75;4414301;32;20050;-76
2021/03/04 01:29:50;;;;;;;145.98;38.58;;;;;;;6.86;76.85;101730.78;4405456;32;20088;-76
2021/03/04 01:32:16;;;;;;;144.95;37.00;;;;;;;6.90;77.06;101719.62;4408061;32;20376;-76
2021/03/04 01:34:42;;;;;;;133.45;38.17;;;;;;;6.90;76.68;101722.41;4414375;32;20123;-76
2021/03/04 01:37:08;;;;;;;141.90;37.83;;;;;;;6.95;76.62;101717.25;4408591;32;20413;-76
2021/03/04 01:39:33;;;;;;;123.13;35.65;;;;;;;6.95;76.30;101713.62;4405022;32;20352;-76
2021/03/04 01:42:00;;;;;;;147.52;36.92;;;;;;;6.92;76.37;101712.44;4405088;32;20427;-76
2021/03/04 01:44:25;;;;;;;130.75;37.22;;;;;;;6.99;76.42;101714.44;4404362;32;20388;-73
2021/03/04 01:46:52;;;;;;;134.77;37.72;;;;;;;7.01;76.59;101706.47;4412119;32;20082;-73
2021/03/04 01:49:17;;;;;;;118.57;35.53;;;;;;;7.06;76.44;101706.91;4413342;32;20051;-74
2021/03/04 01:51:43;;;;;;;124.45;36.28;;;;;;;7.03;76.31;101702.09;4404674;32;20424;-73
2021/03/04 01:54:09;;;;;;;127.43;36.30;;;;;;;7.04;76.75;101700.09;4418994;32;20037;-76
2021/03/04 01:56:35;;;;;;;128.60;35.72;;;;;;;7.00;76.40;101696.50;4419295;32;20042;-76
2021/03/04 01:59:02;;;;;;;114.20;35.05;;;;;;;6.89;76.49;101704.81;4415286;32;20030;-76
2021/03/04 02:01:28;;;;;;;117.25;33.25;;;;;;;6.92;77.02;101698.44;4402794;32;20352;-76
2021/03/04 02:03:54;;;;;;;118.78;35.65;;;;;;;6.83;77.40;101705.56;4412269;32;20109;-76
2021/03/04 02:06:24;;;;;;;112.68;34.75;;;;;;;6.87;77.41;101698.00;4418468;32;20037;-76
2021/03/04 02:08:59;;;;;;;107.63;32.42;;;;;;;6.90;77.40;101692.41;4419506;32;20114;-76
2021/03/04 02:11:31;;;;;;;101.65;33.00;;;;;;;6.92;77.03;101692.03;4418676;32;20042;-76
2021/03/04 02:14:06;;;;;;;98.70;32.22;;;;;;;6.89;76.87;101690.81;4406375;32;20585;-76
2021/03/04 02:16:37;;;;;;;103.40;33.15;;;;;;;6.94;76.78;101684.87;4416062;32;20077;-76
2021/03/04 02:19:09;;;;;;;103.28;32.58;;;;;;;6.90;76.30;101686.81;4418230;32;20378;-76
2021/03/04 02:22:02;;;;;;;103.80;32.63;;;;;;;6.97;76.40;101680.47;4408123;32;20031;-76
2021/03/04 02:24:51;;;;;;;92.28;31.25;;;;;;;7.03;76.48;101674.09;4404565;32;20038;-76
2021/03/04 02:27:21;;;;;;;95.50;32.38;;;;;;;7.09;76.38;101674.56;4405117;32;20077;-76
2021/03/04 02:29:51;;;;;;;93.45;31.37;;;;;;;7.17;76.20;101676.16;4404782;32;20419;-76
2021/03/04 02:32:22;;;;;;;91.07;31.37;;;;;;;7.17;75.76;101667.78;4405851;32;20054;-76
2021/03/04 02:34:52;;;;;;;92.22;32.72;;;;;;;7.25;75.69;101678.63;4419406;32;20041;-76
2021/03/04 02:37:20;;;;;;;86.75;31.85;;;;;;;7.26;75.32;101665.41;4416669;32;20045;-76
2021/03/04 02:39:49;;;;;;;90.80;31.98;;;;;;;7.30;74.90;101672.62;4418572;32;20373;-76
2021/03/04 02:42:21;;;;;;;99.57;32.42;;;;;;;7.28;74.97;101660.22;4417487;32;20042;-77
2021/03/04 02:44:50;;;;;;;85.28;30.12;;;;;;;7.32;74.52;101664.66;4408795;32;20061;-76
2021/03/04 02:47:17;;;;;;;84.28;30.10;;;;;;;7.33;74.65;101669.03;4419019;32;20026;-76
2021/03/04 02:49:45;;;;;;;90.32;30.45;;;;;;;7.26;74.20;101666.22;4418362;32;20080;-76
2021/03/04 02:52:11;;;;;;;89.07;29.20;;;;;;;7.25;74.20;101664.63;4418041;32;20069;-76
2021/03/04 02:54:38;;;;;;;83.43;30.10;;;;;;;7.20;74.04;101667.00;4404411;32;20045;-76
2021/03/04 02:57:07;;;;;;;86.90;29.67;;;;;;;7.18;74.60;101664.56;4403887;32;20065;-76
2021/03/04 02:59:33;;;;;;;82.32;28.92;;;;;;;7.24;74.47;101653.81;4403006;32;20110;-76
2021/03/04 03:02:01;;;;;;;84.80;30.62;;;;;;;7.05;74.28;101659.72;4402687;32;20092;-76
2021/03/04 03:04:27;;;;;;;83.90;28.67;;;;;;;6.98;74.60;101656.87;4402353;32;20442;-76
2021/03/04 03:06:54;;;;;;;77.35;27.87;;;;;;;7.02;75.25;101646.50;4402559;32;20369;-76
2021/03/04 03:09:21;;;;;;;71.78;26.40;;;;;;;7.05;75.33;101645.72;4390492;32;20057;-75
2021/03/04 03:11:50;;;;;;;74.37;26.48;;;;;;;7.04;75.34;101646.91;4389349;32;20099;-76
2021/03/04 03:14:17;;;;;;;72.55;26.90;;;;;;;6.95;75.14;101635.28;4401826;32;20053;-76
2021/03/04 03:16:42;;;;;;;73.28;26.73;;;;;;;7.03;75.78;101637.72;4389535;32;20055;-76
2021/03/04 03:19:08;;;;;;;83.40;27.65;;;;;;;7.05;75.34;101645.72;4396125;32;20076;-76
2021/03/04 03:21:35;;;;;;;79.32;26.75;;;;;;;7.07;74.65;101635.75;4401920;32;20070;-76
2021/03/04 03:24:01;;;;;;;73.87;27.25;;;;;;;7.08;74.88;101631.75;4402836;32;20054;-76
2021/03/04 03:26:26;;;;;;;82.72;27.15;;;;;;;7.12;74.81;101632.56;4403755;32;20061;-76
2021/03/04 03:28:52;;;;;;;65.97;25.05;;;;;;;7.10;74.83;101629.38;4403601;32;20030;-76
2021/03/04 03:31:21;;;;;;;68.57;24.60;;;;;;;7.16;74.77;101621.38;4388899;32;20139;-76
2021/03/04 03:33:46;;;;;;;63.10;23.30;;;;;;;7.14;74.39;101624.59;4403004;32;20109;-76
2021/03/04 03:36:13;;;;;;;61.28;23.45;;;;;;;7.21;74.15;101623.81;4403160;32;20480;-76
2021/03/04 03:38:40;;;;;;;62.10;24.08;;;;;;;7.22;74.11;101620.63;4402807;32;20069;-76
2021/03/04 03:41:07;;;;;;;56.28;22.50;;;;;;;7.24;74.03;101614.62;4403945;32;20103;-76
2021/03/04 03:43:34;;;;;;;64.53;22.85;;;;;;;7.25;73.95;101619.03;4392486;32;20043;-76
2021/03/04 03:46:01;;;;;;;60.63;21.98;;;;;;;7.27;73.75;101622.25;4380955;32;20034;-76
2021/03/04 03:48:28;;;;;;;53.80;21.17;;;;;;;7.32;73.77;101616.25;4401619;32;20061;-76
2021/03/04 03:50:56;;;;;;;56.15;21.37;;;;;;;7.33;73.79;101617.88;4399338;32;20095;-76
2021/03/04 03:53:23;;;;;;;59.50;21.37;;;;;;;7.35;73.66;101615.44;4402740;32;20082;-76
2021/03/04 03:55:52;;;;;;;53.97;20.52;;;;;;;7.35;73.65;101627.47;4397949;32;20046;-76
2021/03/04 03:58:20;;;;;;;51.03;19.20;;;;;;;7.25;73.37;101624.62;4388102;32;20076;-76
2021/03/04 04:00:47;;;;;;;52.88;19.73;;;;;;;7.22;73.94;101622.63;4393736;32;20069;-76
2021/03/04 04:03:13;;;;;;;54.72;19.40;;;;;;;7.17;74.22;101620.19;4408532;32;20537;-76
2021/03/04 04:05:41;;;;;;;55.40;19.33;;;;;;;6.95;74.23;101616.50;4416474;32;20033;-76
2021/03/04 04:08:06;;;;;;;55.55;19.87;;;;;;;7.05;75.07;101612.13;4418016;32;20128;-76
2021/03/04 04:10:35;;;;;;;47.78;18.42;;;;;;;7.07;75.61;101609.75;4416378;32;20069;-76
2021/03/04 04:13:01;;;;;;;50.12;18.92;;;;;;;7.09;75.57;101615.78;4406643;32;20034;-76
2021/03/04 04:15:28;;;;;;;52.28;19.12;;;;;;;7.05;75.57;101612.13;4394181;32;20431;-76
2021/03/04 04:17:57;;;;;;;52.38;18.15;;;;;;;7.02;75.62;101610.94;4399400;32;20121;-75
2021/03/04 04:20:26;;;;;;;49.10;18.58;;;;;;;7.06;75.79;101625.75;4411240;32;20042;-76
2021/03/04 04:22:53;;;;;;;50.12;18.02;;;;;;;7.01;75.72;101614.94;4420021;32;20081;-76
2021/03/04 04:25:21;;;;;;;51.78;18.95;;;;;;;6.97;76.23;101619.69;4421041;32;20026;-76
2021/03/04 04:27:49;;;;;;;52.25;18.30;;;;;;;6.88;75.44;101622.09;4417081;32;20069;-76
2021/03/04 04:30:15;;;;;;;45.15;18.00;;;;;;;6.86;76.28;101626.44;4407435;32;20670;-76
2021/03/04 04:32:41;;;;;;;47.47;18.27;;;;;;;6.91;76.76;101621.28;4406282;32;20046;-76
2021/03/04 04:35:07;;;;;;;47.67;18.30;;;;;;;6.99;76.83;101624.91;4420262;32;20133;-76
2021/03/04 04:37:33;;;;;;;46.75;17.42;;;;;;;6.98;76.42;101637.31;4418291;32;20422;-76
2021/03/04 04:39:58;;;;;;;49.28;17.70;;;;;;;7.03;76.14;101631.34;4420734;32;20102;-76
2021/03/04 04:42:24;;;;;;;43.90;16.70;;;;;;;7.09;76.29;101624.16;4420667;32;20030;-76
2021/03/04 04:44:50;;;;;;;47.08;18.42;;;;;;;7.07;75.47;101620.94;4398131;32;20068;-77
2021/03/04 04:47:16;;;;;;;49.65;18.65;;;;;;;7.12;75.52;101618.56;4413767;32;20086;-75
2021/03/04 04:49:42;;;;;;;50.30;17.90;;;;;;;7.19;75.72;101610.22;4419746;32;20065;-76
2021/03/04 04:52:08;;;;;;;43.83;17.40;;;;;;;7.20;75.46;101609.00;4406439;32;20084;-76
2021/03/04 04:54:33;;;;;;;44.25;17.80;;;;;;;7.26;75.06;101613.03;4412503;32;20046;-76
2021/03/04 04:56:59;;;;;;;44.53;17.85;;;;;;;7.31;75.04;101609.03;4412154;32;20358;-76
2021/03/04 04:59:24;;;;;;;48.38;18.92;;;;;;;7.36;75.26;101617.03;4419578;32;20078;-76
2021/03/04 05:01:50;;;;;;;43.42;18.25;;;;;;;7.34;75.04;101617.44;4407454;32;20110;-76
2021/03/04 05:04:16;;;;;;;47.05;17.62;;;;;;;7.32;74.93;101616.25;4417829;32;20476;-76
2021/03/04 05:06:41;;;;;;;47.05;19.08;;;;;;;7.32;74.69;101613.44;4415058;32;20155;-76
2021/03/04 05:09:07;;;;;;;43.75;19.00;;;;;;;7.29;74.43;101609.44;4408756;32;20471;-76
2021/03/04 05:11:32;;;;;;;44.90;19.23;;;;;;;7.30;74.22;101605.44;4420654;32;20477;-76
2021/03/04 05:13:58;;;;;;;52.85;19.80;;;;;;;7.24;74.25;101609.81;4420571;32;20114;-77
2021/03/04 05:16:24;;;;;;;49.80;19.67;;;;;;;7.24;74.77;101609.81;4420193;32;20053;-76
2021/03/04 05:18:49;;;;;;;45.92;19.15;;;;;;;7.26;75.00;101615.03;4418280;32;20046;-77
2021/03/04 05:21:16;;;;;;;42.47;18.85;;;;;;;7.29;75.05;101614.22;4416236;32;20038;-77
2021/03/04 05:23:42;;;;;;;45.38;19.20;;;;;;;7.34;74.72;101614.62;4403515;32;20116;-76
2021/03/04 05:26:08;;;;;;;48.15;18.90;;;;;;;7.37;74.23;101619.44;4391401;32;20046;-76
2021/03/04 05:28:34;;;;;;;47.45;19.45;;;;;;;7.40;74.49;101618.66;4408807;32;20062;-76
2021/03/04 05:30:59;;;;;;;51.20;20.58;;;;;;;7.49;74.37;101619.09;4419423;32;20050;-76
2021/03/04 05:33:25;;;;;;;46.95;19.80;;;;;;;7.46;74.36;101625.47;4408623;32;20047;-74
2021/03/04 05:35:51;;;;;;;40.12;17.83;;;;;;;7.51;74.19;101632.69;4406521;32;20091;-74
2021/03/04 05:38:17;;;;;;;44.70;18.02;;;;;;;7.17;74.21;101628.56;4419414;32;20405;-74
2021/03/04 05:40:43;;;;;;;45.30;19.23;;;;;;;7.23;74.80;101627.00;4405117;32;20073;-76
2021/03/04 05:43:10;;;;;;;45.45;18.98;;;;;;;7.10;74.82;101634.16;4420075;32;20049;-76
2021/03/04 05:45:39;;;;;;;38.85;16.90;;;;;;;7.19;75.16;101627.00;4419435;32;20061;-77
2021/03/04 05:48:07;;;;;;;48.55;18.90;;;;;;;7.25;75.05;101628.25;4418025;32;20033;-77
2021/03/04 05:50:37;;;;;;;43.90;18.60;;;;;;;7.22;74.45;101620.63;4408726;32;20411;-76
2021/03/04 05:53:09;;;;;;;43.72;18.70;;;;;;;7.19;75.04;101620.59;4402705;32;20096;-77
2021/03/04 05:55:36;;;;;;;41.08;17.92;;;;;;;7.16;75.20;101619.41;4404732;32;20059;-76
2021/03/04 05:58:02;;;;;;;44.03;19.35;;;;;;;7.08;75.65;101620.56;4409387;32;20068;-77
2021/03/04 06:00:28;;;;;;;44.22;18.23;;;;;;;7.04;76.11;101627.34;4410539;32;20035;-76
2021/03/04 06:02:54;;;;;;;40.58;17.50;;;;;;;6.99;75.92;101625.72;4404219;32;20073;-76
2021/03/04 06:05:20;;;;;;;40.47;17.42;;;;;;;6.85;76.46;101620.06;4404364;32;20038;-76
2021/03/04 06:07:46;;;;;;;45.70;19.37;;;;;;;6.83;77.06;101619.66;4415663;32;20042;-76
2021/03/04 06:10:14;;;;;;;40.83;18.00;;;;;;;6.86;77.54;101624.47;4390096;32;20090;-76
2021/03/04 06:12:41;;;;;;;44.08;18.35;;;;;;;6.90;77.60;101621.69;4409235;32;20064;-76
2021/03/04 06:15:09;;;;;;;38.53;17.35;;;;;;;6.93;77.53;101626.50;4419313;32;20071;-77
2021/03/04 06:17:35;;;;;;;43.20;17.98;;;;;;;6.97;77.53;101624.50;4417649;32;20484;-77
2021/03/04 06:20:04;;;;;;;40.40;17.67;;;;;;;6.94;77.47;101626.09;4419360;32;20050;-76
2021/03/04 06:22:32;;;;;;;37.97;16.85;;;;;;;6.99;77.59;101625.72;4406911;32;20447;-77
2021/03/04 06:25:00;;;;;;;41.75;18.17;;;;;;;7.00;77.52;101629.31;4403900;32;20034;-77
2021/03/04 06:27:29;;;;;;;38.42;17.45;;;;;;;7.01;77.71;101625.31;4404160;32;20042;-77
2021/03/04 06:29:56;;;;;;;39.60;16.40;;;;;;;7.08;77.45;101630.94;4407912;32;20419;-76
2021/03/04 06:32:23;;;;;;;38.00;16.62;;;;;;;7.09;77.30;101621.38;4408849;32;20357;-77
2021/03/04 06:35:11;;;;;;;40.30;16.20;;;;;;;7.11;77.34;101624.56;4417971;32;20127;-77
2021/03/04 06:37:39;;;;;;;37.88;16.73;;;;;;;7.08;76.91;101628.12;4417349;32;20084;-77
2021/03/04 06:40:07;;;;;;;40.63;16.98;;;;;;;7.13;76.89;101622.19;4417695;32;20151;-77
2021/03/04 06:42:42;;;;;;;39.03;17.35;;;;;;;7.14;76.82;101630.19;4419030;32;20080;-77
2021/03/04 06:45:20;;;;;;;36.95;16.02;;;;;;;7.21;76.49;101621.03;4402005;32;20038;-77
2021/03/04 06:47:46;;;;;;;33.80;15.18;;;;;;;7.19;76.83;101629.81;4402770;32;20049;-76
2021/03/04 06:50:21;;;;;;;35.67;16.33;;;;;;;7.11;76.92;101630.97;4403661;32;20219;-76
2021/03/04 06:52:46;;;;;;;35.38;15.90;;;;;;;7.12;77.20;101626.19;4404458;32;20089;-76
2021/03/04 06:55:14;;;;;;;36.33;16.30;;;;;;;7.11;77.50;101632.94;4412603;32;20551;-77
2021/03/04 06:57:40;;;;;;;47.13;17.62;;;;;;;7.14;77.38;101630.19;4403014;32;20081;-77
2021/03/04 07:00:17;;;;;;;38.03;17.48;;;;;;;7.18;77.76;101627.41;4410979;32;20042;-77
2021/03/04 07:02:51;;;;;;;38.15;15.18;;;;;;;7.18;77.62;101630.19;4416724;32;20123;-77
2021/03/04 07:05:17;;;;;;;37.28;17.42;;;;;;;7.10;76.89;101634.16;4415913;32;20387;-76
2021/03/04 07:07:47;;;;;;;39.85;15.95;;;;;;;6.97;77.60;101642.09;4402941;32;20046;-76
2021/03/04 07:10:13;;;;;;;40.03;17.00;;;;;;;7.08;78.03;101640.16;4398724;32;20105;-76
2021/03/04 07:12:42;;;;;;;38.90;16.60;;;;;;;6.95;78.06;101638.91;4405565;32;20070;-76
2021/03/04 07:15:09;;;;;;;39.55;17.00;;;;;;;6.93;78.30;101641.28;4406189;32;20080;-76
2021/03/04 07:17:35;;;;;;;41.00;17.60;;;;;;;6.93;78.62;101646.09;4418911;32;20071;-76
2021/03/04 07:20:02;;;;;;;44.72;17.90;;;;;;;6.96;79.12;101648.09;4417592;32;20046;-75
2021/03/04 07:22:30;;;;;;;45.15;17.95;;;;;;;7.04;79.43;101649.72;4403959;32;20034;-75
2021/03/04 07:24:57;;;;;;;35.47;16.62;;;;;;;7.10;79.55;101653.75;4406073;32;20029;-76
2021/03/04 07:27:23;;;;;;;45.38;19.25;;;;;;;7.09;79.43;101652.94;4417510;32;20030;-76
2021/03/04 07:29:51;;;;;;;41.63;17.00;;;;;;;7.16;79.48;101667.00;4416897;32;20106;-76
2021/03/04 07:32:18;;;;;;;41.72;17.52;;;;;;;7.26;79.15;101668.22;4417397;32;20046;-76
2021/03/04 07:34:44;;;;;;;40.67;18.12;;;;;;;7.25;79.03;101661.84;4398221;32;20090;-76
2021/03/04 07:37:15;;;;;;;39.53;17.23;;;;;;;7.30;79.01;101667.03;4400855;32;20046;-76
2021/03/04 07:39:41;;;;;;;36.90;16.02;;;;;;;7.34;79.10;101656.63;4416082;32;20083;-76
2021/03/04 07:42:22;;;;;;;38.25;15.85;;;;;;;7.34;78.28;101662.25;4405481;32;20452;-76
2021/03/04 07:44:49;;;;;;;35.35;15.38;;;;;;;7.29;78.38;101657.03;4412386;32;20076;-75
2021/03/04 07:47:23;;;;;;;37.10;15.52;;;;;;;7.25;78.30;101658.22;4401408;32;20344;-76
2021/03/04 07:49:49;;;;;;;23.60;12.07;;;;;;;7.34;78.33;101669.84;4413660;32;20041;-76
2021/03/04 07:52:18;;;;;;;35.03;15.27;;;;;;;7.20;77.50;101661.38;4400329;32;20390;-76
2021/03/04 07:54:48;;;;;;;34.67;15.32;;;;;;;7.23;77.26;101671.81;4419280;32;20064;-76
2021/03/04 07:57:16;;;;;;;33.47;15.13;;;;;;;7.29;77.47;101671.03;4419598;32;20034;-75
2021/03/04 07:59:52;;;;;;;30.42;13.80;;;;;;;7.30;77.16;101680.25;4408589;32;20082;-76
2021/03/04 08:02:36;;;;;;;33.72;13.90;;;;;;;7.18;76.40;101670.19;4411653;32;20122;-76
2021/03/04 08:05:30;;;;;;;27.67;12.27;;;;;;;7.20;76.87;101676.19;4414999;32;20113;-76
2021/03/04 08:07:57;;;;;;;29.37;13.05;;;;;;;7.18;76.20;101680.59;4411844;32;20081;-77
2021/03/04 08:10:24;;;;;;;24.10;11.88;;;;;;;7.22;76.36;101679.41;4416870;32;20087;-75
2021/03/04 08:15:35;;;;;;;24.98;12.27;;;;;;;7.89;74.96;101693.63;3975024;32;15022630;-73
2021/03/04 08:18:02;;;;;;;20.35;11.12;;;;;;;7.89;74.96;101693.63;4418927;32;20067;-73
2021/03/04 08:20:28;;;;;;;29.35;12.98;;;;;;;7.42;76.11;101688.28;4424756;32;20046;-76
2021/03/04 08:22:56;;;;;;;28.10;13.18;;;;;;;7.36;75.96;101690.66;4425418;32;20107;-74
2021/03/04 08:27:59;;;;;;;31.42;13.60;;;;;;;7.44;76.16;101697.91;3987616;32;15022058;-73
2021/03/04 08:30:36;;;;;;;29.98;14.40;;;;;;;7.45;76.90;101695.88;4439552;32;20439;-76
2021/03/04 08:33:04;;;;;;;33.78;14.20;;;;;;;7.37;77.11;101697.84;4441041;32;20192;-74
2021/03/04 08:35:34;;;;;;;28.77;13.45;;;;;;;7.50;77.50;101692.72;4443250;32;20109;-77
2021/03/04 08:38:03;;;;;;;26.95;12.95;;;;;;;7.58;77.50;101697.94;4437587;32;20082;-77
2021/03/04 08:40:39;;;;;;;26.48;12.23;;;;;;;7.54;77.18;101693.53;4434436;32;20553;-77
2021/03/04 08:43:09;;;;;;;26.60;11.10;;;;;;;7.63;76.98;101702.34;4432623;32;20033;-81
2021/03/04 08:45:35;;;;;;;26.45;12.60;;;;;;;7.48;76.89;101697.91;4428952;32;20108;-78
2021/03/04 08:48:04;;;;;;;25.75;12.85;;;;;;;7.52;77.08;101702.31;4433240;32;20115;-77
2021/03/04 08:50:32;;;;;;;25.55;11.02;;;;;;;7.69;76.91;101693.19;4433954;32;20072;-77
2021/03/04 08:52:59;;;;;;;21.45;10.90;;;;;;;7.80;76.56;101702.41;4429725;32;20460;-74
2021/03/04 08:55:25;;;;;;;21.85;10.70;;;;;;;7.69;75.32;101703.56;4443023;32;20063;-73
2021/03/04 08:57:51;;;;;;;21.80;11.02;;;;;;;7.74;74.53;101706.78;4436887;32;20144;-76
2021/03/04 09:00:17;;;;;;;22.33;10.82;;;;;;;7.79;74.72;101708.41;4444211;32;20089;-73
2021/03/04 09:02:46;;;;;;;24.87;11.93;;;;;;;7.98;74.69;101708.06;4438056;32;20322;-75
2021/03/04 09:05:16;;;;;;;21.35;11.20;;;;;;;7.98;74.07;101710.88;4442020;32;20037;-72
2021/03/04 09:07:44;;;;;;;22.27;11.43;;;;;;;8.10;74.15;101719.69;4433429;32;20092;-77
2021/03/04 09:10:12;;;;;;;27.20;11.85;;;;;;;8.18;73.77;101721.31;4434633;32;20032;-76
2021/03/04 09:15:20;;;;;;;29.73;12.30;;;;;;;8.64;71.96;101728.97;4011302;31;15019926;-77
2021/03/04 09:17:46;;;;;;;23.75;11.45;;;;;;;8.64;71.96;101728.97;4466969;32;20063;-74
2021/03/04 09:20:14;;;;;;;22.08;11.93;;;;;;;8.23;72.15;101725.75;4473162;32;20119;-73
2021/03/04 09:22:43;;;;;;;24.12;12.52;;;;;;;8.13;71.90;101729.31;4471511;32;20085;-74
2021/03/04 09:25:12;;;;;;;21.20;10.98;;;;;;;8.26;72.23;101729.75;4468164;32;20098;-74
2021/03/04 09:27:39;;;;;;;25.62;12.25;;;;;;;8.18;71.85;101729.72;4462142;32;20075;-74
2021/03/04 09:30:07;;;;;;;23.90;11.02;;;;;;;8.26;71.84;101724.16;4450727;32;20049;-74
2021/03/04 09:32:34;;;;;;;19.52;11.00;;;;;;;8.23;71.64;101733.38;4471787;32;20040;-74
2021/03/04 09:35:10;;;;;;;21.10;11.38;;;;;;;8.14;71.44;101726.09;4462106;32;20033;-73
2021/03/04 09:37:35;;;;;;;19.25;10.38;;;;;;;8.40;71.08;101730.56;4458747;32;20045;-75
2021/03/04 09:40:02;;;;;;;20.58;11.88;;;;;;;8.51;71.28;101730.56;4445295;32;20064;-77
2021/03/04 09:45:11;;;;;;;23.27;12.10;;;;;;;9.23;68.99;101733.69;3996501;31;15014523;-73
2021/03/04 09:47:43;;;;;;;25.02;12.15;;;;;;;9.23;68.99;101733.69;4455984;32;20140;-74
2021/03/04 09:50:21;;;;;;;22.15;12.15;;;;;;;8.88;69.30;101728.97;4435165;32;20105;-76
2021/03/04 09:53:06;;;;;;;24.23;12.57;;;;;;;9.02;67.90;101726.09;4453963;32;20115;-74
2021/03/04 09:55:41;;;;;;;23.08;11.27;;;;;;;9.18;68.61;101731.31;4459604;32;20033;-75
2021/03/04 10:00:58;;;;;;;22.27;11.73;;;;;;;10.25;64.52;101734.03;3988998;32;15028432;-73
2021/03/04 10:03:41;;;;;;;21.02;11.98;;;;;;;10.25;64.52;101734.03;4404944;32;20049;-74
2021/03/04 10:06:41;;;;;;;17.33;10.00;;;;;;;9.83;64.34;101737.88;4419113;32;20129;-77
2021/03/04 10:09:11;;;;;;;16.75;8.73;;;;;;;9.95;64.91;101734.56;4425626;32;20030;-76
2021/03/04 10:11:51;;;;;;;20.95;7.90;;;;;;;10.04;64.71;101728.50;4427449;32;20053;-74
2021/03/04 10:14:20;;;;;;;155.73;18.30;;;;;;;9.94;62.92;101735.78;4421920;32;20723;-76
2021/03/04 10:17:05;;;;;;;24.48;7.22;;;;;;;9.71;63.87;101741.16;4421758;32;20050;-75
2021/03/04 10:19:31;;;;;;;12.48;6.70;;;;;;;9.62;63.92;101734.34;4434452;32;20114;-76
2021/03/04 10:21:57;;;;;;;12.45;6.53;;;;;;;9.69;64.31;101735.13;4414196;32;20038;-75
2021/03/04 10:24:23;;;;;;;10.82;6.25;;;;;;;9.74;63.38;101736.72;4426270;32;20428;-72
2021/03/04 10:26:49;;;;;;;9.93;5.85;;;;;;;9.61;62.93;101730.72;4427740;32;20085;-73
2021/03/04 10:29:15;;;;;;;12.90;7.80;;;;;;;9.70;62.50;101735.94;4426527;32;20038;-73
2021/03/04 10:31:41;;;;;;;41.30;9.80;;;;;;;9.86;62.51;101745.50;4428006;32;20091;-73
2021/03/04 10:34:06;;;;;;;19.30;10.82;;;;;;;10.02;62.66;101737.38;4427555;32;20085;-73
2021/03/04 10:36:32;;;;;;;14.77;6.80;;;;;;;10.37;62.77;101741.19;4429395;32;20132;-73
2021/03/04 10:38:57;;;;;;;9.55;5.90;;;;;;;10.53;61.40;101738.66;4423517;32;20812;-72
2021/03/04 10:41:26;;;;;;;9.88;5.18;;;;;;;10.77;60.71;101738.41;4419948;32;20076;-73
2021/03/04 10:43:51;;;;;;;8.38;5.72;;;;;;;10.98;60.18;101726.19;4416330;32;20042;-73
2021/03/04 10:46:17;;;;;;;10.07;6.40;;;;;;;11.09;59.15;101735.31;4415580;32;20035;-73
2021/03/04 10:48:43;;;;;;;11.82;6.78;;;;;;;11.13;59.28;101733.25;4419930;32;20046;-73
2021/03/04 10:51:08;;;;;;;13.13;8.27;;;;;;;11.10;59.32;101731.25;4427250;32;20053;-75
2021/03/04 10:53:34;;;;;;;11.93;6.85;;;;;;;11.11;59.26;101736.47;4417031;32;20064;-77
2021/03/04 10:56:00;;;;;;;12.45;6.93;;;;;;;11.10;59.68;101731.25;4427796;32;20112;-76
2021/03/04 10:58:26;;;;;;;13.25;6.10;;;;;;;11.22;59.07;101742.81;4416687;32;20078;-75
2021/03/04 11:00:51;;;;;;;14.13;6.50;;;;;;;11.18;58.84;101736.41;4409603;32;20109;-75
2021/03/04 11:03:18;;;;;;;11.18;3.95;;;;;;;11.30;58.87;101744.34;4411511;32;20045;-76
2021/03/04 11:05:43;;;;;;;9.95;4.50;;;;;;;11.15;57.84;101744.91;4415617;32;20416;-78
2021/03/04 11:08:09;;;;;;;8.20;3.58;;;;;;;11.13;58.29;101739.69;4419598;32;20054;-77
2021/03/04 11:10:35;;;;;;;23.05;8.07;;;;;;;11.15;57.81;101742.09;4409968;32;20030;-79
2021/03/04 11:13:00;;;;;;;13.38;4.43;;;;;;;11.20;58.26;101747.28;4405228;32;20088;-77
2021/03/04 11:15:26;;;;;;;8.60;3.22;;;;;;;11.17;57.61;101751.72;4405035;32;20079;-78
2021/03/04 11:17:52;;;;;;;6.85;3.10;;;;;;;11.27;57.09;101747.19;4410091;32;20366;-75
2021/03/04 11:20:18;;;;;;;5.72;3.12;;;;;;;11.19;57.55;101759.75;4403346;32;20042;-76
2021/03/04 11:22:44;;;;;;;9.25;3.40;;;;;;;11.17;57.77;101762.19;4416227;32;20068;-78
2021/03/04 11:25:11;;;;;;;8.93;3.47;;;;;;;11.26;57.63;101757.66;4398569;32;20101;-80
2021/03/04 11:27:37;;;;;;;7.25;2.80;;;;;;;11.39;58.11;101757.94;4405620;32;20084;-80
2021/03/04 11:30:05;;;;;;;3.50;2.22;;;;;;;11.30;56.84;101754.81;4405287;32;20042;-78
2021/03/04 11:32:31;;;;;;;6.80;2.60;;;;;;;11.41;56.23;101753.47;4402246;32;20062;-77
2021/03/04 11:34:56;;;;;;;7.75;3.25;;;;;;;11.30;56.08;101760.44;4417314;32;20048;-77